Time;durP1;ratioP1;P1;durP2;ratioP2;P2;SDS_P1;SDS_P2;PMS_P1;PMS_P2;Temp;Humidity;BMP_temperature;BMP_pressure;BME280_temperature;BME280_humidity;BME280_pressure;Samples;Min_cycle;Max_cycle;Signal;HPM_P1;HPM_P2
2021/05/29 00:01:29;;;;;;;;;;;12.20;99.90;;;;;;5093163;28;19930;-75
2021/05/29 00:03:55;;;;;;;;;;;12.20;99.90;;;;;;5092017;28;20348;-75
2021/05/29 00:06:20;;;;;;;;;;;12.20;99.90;;;;;;5092972;28;19907;-75
2021/05/29 00:08:46;;;;;;;;;;;12.20;99.90;;;;;;5092849;28;19904;-74
2021/05/29 00:11:11;;;;;;;;;;;12.20;99.90;;;;;;5092083;28;19911;-74
2021/05/29 00:13:38;;;;;;;;;;;12.10;99.90;;;;;;5096546;28;19911;-74
2021/05/29 00:16:04;;;;;;;;;;;12.10;99.90;;;;;;5096737;28;19940;-75
2021/05/29 00:18:29;;;;;;;;;;;12.10;99.90;;;;;;5095784;28;20449;-75
2021/05/29 00:20:55;;;;;;;;;;;12.10;99.90;;;;;;5096970;28;19919;-75
2021/05/29 00:23:21;;;;;;;;;;;12.00;99.90;;;;;;5096308;28;19945;-75
2021/05/29 00:25:46;;;;;;;;;;;12.10;99.90;;;;;;5096857;28;20020;-75
2021/05/29 00:28:13;;;;;;;;;;;12.00;99.90;;;;;;5096353;28;19903;-75
2021/05/29 00:30:39;;;;;;;;;;;12.00;99.90;;;;;;5095842;28;19908;-74
2021/05/29 00:33:05;;;;;;;;;;;11.90;99.90;;;;;;5096478;28;19911;-75
2021/05/29 00:35:30;;;;;;;;;;;11.90;99.90;;;;;;5096474;28;19912;-74
2021/05/29 00:37:56;;;;;;;;;;;11.90;99.90;;;;;;5095638;28;19904;-75
2021/05/29 00:40:21;;;;;;;;;;;11.80;99.90;;;;;;5095553;28;19969;-74
2021/05/29 00:42:47;;;;;;;;;;;11.90;99.90;;;;;;5095969;28;19904;-74
2021/05/29 00:45:13;;;;;;;;;;;11.70;99.90;;;;;;5095154;28;19904;-73
2021/05/29 00:47:38;;;;;;;;;;;11.60;99.90;;;;;;5095825;28;19904;-75
2021/05/29 00:50:05;;;;;;;;;;;11.60;99.90;;;;;;5096038;28;19991;-74
2021/05/29 00:52:33;;;;;;;;;;;11.50;99.90;;;;;;5095017;28;20319;-75
2021/05/29 00:54:58;;;;;;;;;;;11.50;99.90;;;;;;5095859;28;19904;-73
2021/05/29 00:57:24;;;;;;;;;;;11.50;99.90;;;;;;5095551;28;19904;-74
2021/05/29 00:59:49;;;;;;;;;;;11.40;99.90;;;;;;5095038;28;19908;-74
2021/05/29 01:02:16;;;;;;;;;;;11.50;99.90;;;;;;5095858;28;19908;-74
2021/05/29 01:04:46;;;;;;;;;;;11.40;99.90;;;;;;5095744;28;20310;-74
2021/05/29 01:07:12;;;;;;;;;;;11.40;99.90;;;;;;5094952;28;19904;-75
2021/05/29 01:09:41;;;;;;;;;;;11.40;99.90;;;;;;5095498;28;19904;-74
2021/05/29 01:12:07;;;;;;;;;;;11.40;99.90;;;;;;5095475;28;19904;-74
2021/05/29 01:14:33;;;;;;;;;;;11.40;99.90;;;;;;5094442;28;19911;-74
2021/05/29 01:17:00;;;;;;;;;;;11.30;99.90;;;;;;5097307;28;19991;-75
2021/05/29 01:19:26;;;;;;;;;;;11.30;99.90;;;;;;5097552;28;19907;-74
2021/05/29 01:21:51;;;;;;;;;;;11.30;99.90;;;;;;5094684;28;20387;-75
2021/05/29 01:24:17;;;;;;;;;;;11.20;99.90;;;;;;5094648;28;19904;-75
2021/05/29 01:26:43;;;;;;;;;;;11.20;99.90;;;;;;5094253;28;19954;-74
2021/05/29 01:29:09;;;;;;;;;;;11.20;99.90;;;;;;5077055;28;19948;-75
2021/05/29 01:31:34;;;;;;;;;;;11.10;99.90;;;;;;5094978;28;19904;-74
2021/05/29 01:34:00;;;;;;;;;;;11.10;99.90;;;;;;5094582;28;19923;-74
2021/05/29 01:36:26;;;;;;;;;;;11.10;99.90;;;;;;5095049;28;19957;-74
2021/05/29 01:38:52;;;;;;;;;;;11.00;99.90;;;;;;5094536;28;19904;-75
2021/05/29 01:41:18;;;;;;;;;;;11.10;99.90;;;;;;5093971;28;19919;-74
2021/05/29 01:43:45;;;;;;;;;;;11.00;99.90;;;;;;5094813;28;19938;-75
2021/05/29 01:46:12;;;;;;;;;;;11.00;99.90;;;;;;5094505;28;20260;-74
2021/05/29 01:48:41;;;;;;;;;;;11.00;99.90;;;;;;5093893;28;19904;-74
2021/05/29 01:51:06;;;;;;;;;;;11.00;99.90;;;;;;5094512;28;19929;-75
2021/05/29 01:53:32;;;;;;;;;;;10.90;99.90;;;;;;5094750;28;19996;-75
2021/05/29 01:55:58;;;;;;;;;;;10.90;99.90;;;;;;5093873;28;19994;-75
2021/05/29 01:58:24;;;;;;;;;;;10.90;99.90;;;;;;5094428;28;19946;-74
2021/05/29 02:00:50;;;;;;;;;;;10.80;99.90;;;;;;5094639;28;19926;-74
2021/05/29 02:03:15;;;;;;;;;;;10.80;99.90;;;;;;5093625;28;19904;-73
2021/05/29 02:05:41;;;;;;;;;;;10.80;99.90;;;;;;5094163;28;19947;-74
2021/05/29 02:08:07;;;;;;;;;;;10.70;99.90;;;;;;5094288;28;19904;-74
2021/05/29 02:10:34;;;;;;;;;;;10.70;99.90;;;;;;5093452;28;19930;-75
2021/05/29 02:13:02;;;;;;;;;;;10.70;99.90;;;;;;5094508;28;19941;-75
2021/05/29 02:15:31;;;;;;;;;;;10.70;99.90;;;;;;5094351;28;19911;-75
2021/05/29 02:17:58;;;;;;;;;;;10.60;99.90;;;;;;5093639;28;19904;-75
2021/05/29 02:20:46;;;;;;;;;;;10.60;99.90;;;;;;5094238;28;20060;-74
2021/05/29 02:23:14;;;;;;;;;;;10.60;99.90;;;;;;5084701;28;19955;-75
2021/05/29 02:25:39;;;;;;;;;;;10.60;99.90;;;;;;5095012;28;19936;-75
2021/05/29 02:28:05;;;;;;;;;;;10.50;99.90;;;;;;5094520;28;20025;-75
2021/05/29 02:30:31;;;;;;;;;;;10.50;99.90;;;;;;5093354;28;19942;-74
2021/05/29 02:32:57;;;;;;;;;;;10.40;99.90;;;;;;5094352;28;19930;-75
2021/05/29 02:35:22;;;;;;;;;;;10.40;99.90;;;;;;5093493;28;19904;-74
2021/05/29 02:37:48;;;;;;;;;;;10.40;99.90;;;;;;5093493;28;20398;-75
2021/05/29 02:40:17;;;;;;;;;;;10.30;99.90;;;;;;5093627;28;19916;-74
2021/05/29 02:42:43;;;;;;;;;;;10.30;99.90;;;;;;5093930;28;19904;-75
2021/05/29 02:45:08;;;;;;;;;;;10.30;99.90;;;;;;5093182;28;19904;-73
2021/05/29 02:47:34;;;;;;;;;;;10.20;99.90;;;;;;5093419;28;19990;-74
2021/05/29 02:50:00;;;;;;;;;;;10.20;99.90;;;;;;5093587;28;19904;-75
2021/05/29 02:52:26;;;;;;;;;;;10.20;99.90;;;;;;5093035;28;19993;-74
2021/05/29 02:54:51;;;;;;;;;;;10.20;99.90;;;;;;5093704;28;19915;-75
2021/05/29 02:57:17;;;;;;;;;;;10.10;99.90;;;;;;5093770;28;19903;-75
2021/05/29 02:59:44;;;;;;;;;;;10.10;99.90;;;;;;5092828;28;19960;-77
2021/05/29 03:02:10;;;;;;;;;;;10.10;99.90;;;;;;5093585;28;20313;-75
2021/05/29 03:04:35;;;;;;;;;;;10.00;99.90;;;;;;5096540;28;19904;-74
2021/05/29 03:07:01;;;;;;;;;;;10.10;99.90;;;;;;5092836;28;19914;-74
2021/05/29 03:09:27;;;;;;;;;;;10.00;99.90;;;;;;5093199;28;20010;-74
2021/05/29 03:11:53;;;;;;;;;;;10.00;99.90;;;;;;5093374;28;19904;-74
2021/05/29 03:14:18;;;;;;;;;;;10.00;99.90;;;;;;5092601;28;19943;-75
2021/05/29 03:16:44;;;;;;;;;;;10.00;99.90;;;;;;5093186;28;19904;-75
2021/05/29 03:19:09;;;;;;;;;;;10.00;99.90;;;;;;5092647;28;19958;-74
2021/05/29 03:21:35;;;;;;;;;;;9.90;99.90;;;;;;5092830;28;20263;-74
2021/05/29 03:24:00;;;;;;;;;;;9.90;99.90;;;;;;5093239;28;19908;-74
2021/05/29 03:26:25;;;;;;;;;;;9.90;99.90;;;;;;5092572;28;19919;-74
2021/05/29 03:28:51;;;;;;;;;;;9.90;99.90;;;;;;5093360;28;19904;-74
2021/05/29 03:31:17;;;;;;;;;;;9.80;99.90;;;;;;5093143;28;20362;-75
2021/05/29 03:33:42;;;;;;;;;;;9.80;99.90;;;;;;5092295;28;20340;-75
2021/05/29 03:36:08;;;;;;;;;;;9.90;99.90;;;;;;5093560;28;20392;-76
2021/05/29 03:38:33;;;;;;;;;;;9.80;99.90;;;;;;5093266;28;19914;-75
2021/05/29 03:41:02;;;;;;;;;;;9.80;99.90;;;;;;5092552;28;19923;-75
2021/05/29 03:43:27;;;;;;;;;;;9.80;99.90;;;;;;5093386;28;19911;-75
2021/05/29 03:45:52;;;;;;;;;;;9.70;99.90;;;;;;5092943;28;19904;-74
2021/05/29 03:48:18;;;;;;;;;;;9.80;99.90;;;;;;5095931;28;19990;-75
2021/05/29 03:50:43;;;;;;;;;;;9.80;99.90;;;;;;5097118;28;20347;-74
2021/05/29 03:53:09;;;;;;;;;;;9.80;99.90;;;;;;5097062;28;19937;-74
2021/05/29 03:55:35;;;;;;;;;;;9.80;99.90;;;;;;5096259;28;20275;-75
2021/05/29 03:58:01;;;;;;;;;;;9.80;99.90;;;;;;5097002;28;19912;-75
2021/05/29 04:00:28;;;;;;;;;;;9.80;99.90;;;;;;5096912;28;19912;-75
2021/05/29 04:02:53;;;;;;;;;;;9.80;99.90;;;;;;5096020;28;20244;-76
2021/05/29 04:05:19;;;;;;;;;;;9.80;99.90;;;;;;5096650;28;19904;-75
2021/05/29 04:07:45;;;;;;;;;;;9.80;99.90;;;;;;5097047;28;19904;-75
2021/05/29 04:10:13;;;;;;;;;;;9.80;99.90;;;;;;5096539;28;19977;-75
2021/05/29 04:12:39;;;;;;;;;;;9.80;99.90;;;;;;5096417;28;19904;-75
2021/05/29 04:15:08;;;;;;;;;;;9.80;99.90;;;;;;5096947;28;19911;-75
2021/05/29 04:17:34;;;;;;;;;;;9.80;99.90;;;;;;5095557;28;19904;-74
2021/05/29 04:19:59;;;;;;;;;;;9.90;99.90;;;;;;5096613;28;19912;-74
2021/05/29 04:22:25;;;;;;;;;;;9.80;99.90;;;;;;5096922;28;19904;-74
2021/05/29 04:24:50;;;;;;;;;;;9.80;99.90;;;;;;5095810;28;19995;-74
2021/05/29 04:27:17;;;;;;;;;;;9.80;99.90;;;;;;5096557;28;19911;-76
2021/05/29 04:29:42;;;;;;;;;;;9.80;99.90;;;;;;5077693;28;19916;-74
2021/05/29 04:32:08;;;;;;;;;;;9.80;99.90;;;;;;5096720;28;19904;-75
2021/05/29 04:34:34;;;;;;;;;;;9.90;99.90;;;;;;5096473;28;19904;-75
2021/05/29 04:36:59;;;;;;;;;;;9.90;99.90;;;;;;5095782;28;20316;-75
2021/05/29 04:39:25;;;;;;;;;;;9.90;99.90;;;;;;5095964;28;19919;-75
2021/05/29 04:41:51;;;;;;;;;;;9.90;99.90;;;;;;5096207;28;20005;-75
2021/05/29 04:44:16;;;;;;;;;;;9.90;99.90;;;;;;5095269;28;19911;-75
2021/05/29 04:46:50;;;;;;;;;;;10.10;99.90;;;;;;5096076;28;19947;-75
2021/05/29 04:49:17;;;;;;;;;;;10.10;99.90;;;;;;5096901;28;19911;-76
2021/05/29 04:51:44;;;;;;;;;;;10.20;99.90;;;;;;5096929;28;19904;-75
2021/05/29 04:54:09;;;;;;;;;;;10.20;99.90;;;;;;5096342;28;19911;-75
2021/05/29 04:56:35;;;;;;;;;;;10.30;99.90;;;;;;5077644;28;20275;-75
2021/05/29 04:59:00;;;;;;;;;;;10.40;99.90;;;;;;5093827;28;20002;-76
2021/05/29 05:01:29;;;;;;;;;;;10.50;99.90;;;;;;5095624;28;20053;-75
2021/05/29 05:03:55;;;;;;;;;;;10.60;99.90;;;;;;5095984;28;19987;-75
2021/05/29 05:06:20;;;;;;;;;;;10.60;99.90;;;;;;5095139;28;19985;-74
2021/05/29 05:08:46;;;;;;;;;;;10.70;99.90;;;;;;5095817;28;19919;-74
2021/05/29 05:11:11;;;;;;;;;;;10.70;99.90;;;;;;5095665;28;19903;-74
2021/05/29 05:13:37;;;;;;;;;;;10.70;99.90;;;;;;5094880;28;20364;-74
2021/05/29 05:16:02;;;;;;;;;;;10.80;99.90;;;;;;5095800;28;19915;-75
2021/05/29 05:18:28;;;;;;;;;;;10.80;99.90;;;;;;5095696;28;19990;-75
2021/05/29 05:20:54;;;;;;;;;;;10.90;99.90;;;;;;5094541;28;19912;-74
2021/05/29 05:23:21;;;;;;;;;;;10.90;99.90;;;;;;5095394;28;19904;-74
2021/05/29 05:25:47;;;;;;;;;;;10.90;99.90;;;;;;5094435;28;19904;-75
2021/05/29 05:28:13;;;;;;;;;;;10.90;99.90;;;;;;5095174;28;19911;-74
2021/05/29 05:30:41;;;;;;;;;;;11.00;99.90;;;;;;5095338;28;19910;-74
2021/05/29 05:33:07;;;;;;;;;;;11.10;99.90;;;;;;5094611;28;20252;-74
2021/05/29 05:35:32;;;;;;;;;;;11.20;99.90;;;;;;5094927;28;19904;-74
2021/05/29 05:37:58;;;;;;;;;;;11.20;99.90;;;;;;5095445;28;19904;-74
2021/05/29 05:40:23;;;;;;;;;;;11.30;99.90;;;;;;5093822;28;20414;-75
2021/05/29 05:42:49;;;;;;;;;;;11.30;99.90;;;;;;5094870;28;19914;-74
2021/05/29 05:45:15;;;;;;;;;;;11.40;99.90;;;;;;5094781;28;19908;-75
2021/05/29 05:47:41;;;;;;;;;;;11.40;99.90;;;;;;5094734;28;19908;-75
2021/05/29 05:50:08;;;;;;;;;;;11.40;99.90;;;;;;5094783;28;19904;-75
2021/05/29 05:52:34;;;;;;;;;;;11.40;99.90;;;;;;5094945;28;19949;-75
2021/05/29 05:55:00;;;;;;;;;;;11.50;99.90;;;;;;5094379;28;19982;-75
2021/05/29 05:57:25;;;;;;;;;;;11.60;99.90;;;;;;5094937;28;19987;-75
2021/05/29 05:59:51;;;;;;;;;;;11.60;99.90;;;;;;5094707;28;19907;-75
2021/05/29 06:02:16;;;;;;;;;;;11.70;99.90;;;;;;5093909;28;20274;-75
2021/05/29 06:04:42;;;;;;;;;;;11.70;99.90;;;;;;5095220;28;19904;-75
2021/05/29 06:07:07;;;;;;;;;;;11.70;99.90;;;;;;5095192;28;19904;-76
2021/05/29 06:09:33;;;;;;;;;;;11.70;99.90;;;;;;5093937;28;19904;-75
2021/05/29 06:11:58;;;;;;;;;;;11.80;99.90;;;;;;5094528;28;19904;-75
2021/05/29 06:19:53;;;;;;;;;;;12.00;99.90;;;;;;5094800;28;19974;-75
2021/05/29 06:22:19;;;;;;;;;;;12.00;99.90;;;;;;5093935;28;19908;-75
2021/05/29 06:24:44;;;;;;;;;;;12.10;99.90;;;;;;5094246;28;19911;-75
2021/05/29 06:27:10;;;;;;;;;;;12.30;99.90;;;;;;5094457;28;19904;-75
2021/05/29 06:29:35;;;;;;;;;;;12.20;99.90;;;;;;5094170;28;19904;-75
2021/05/29 06:32:01;;;;;;;;;;;12.30;99.90;;;;;;5093884;28;19970;-75
2021/05/29 06:34:26;;;;;;;;;;;12.30;99.90;;;;;;5095409;28;19911;-75
2021/05/29 06:36:52;;;;;;;;;;;12.40;99.90;;;;;;5093883;28;19911;-75
2021/05/29 06:39:18;;;;;;;;;;;12.50;99.90;;;;;;5092825;28;20085;-75
2021/05/29 06:41:43;;;;;;;;;;;12.50;99.90;;;;;;5094140;28;19951;-75
2021/05/29 06:44:12;;;;;;;;;;;12.60;99.90;;;;;;5092094;28;20364;-74
2021/05/29 06:46:38;;;;;;;;;;;12.70;99.90;;;;;;5093059;28;19904;-74
2021/05/29 06:49:04;;;;;;;;;;;12.70;99.90;;;;;;5093307;28;20359;-74
2021/05/29 06:54:06;;;;;;;;;;;12.80;99.90;;;;;;5093400;28;20340;-77
2021/05/29 06:59:15;;;;;;;;;;;13.00;99.90;;;;;;5092608;28;20343;-76
2021/05/29 07:01:41;;;;;;;;;;;13.00;99.90;;;;;;5093227;28;20006;-76
2021/05/29 07:04:06;;;;;;;;;;;13.10;99.90;;;;;;5093167;28;19904;-76
2021/05/29 07:06:32;;;;;;;;;;;13.10;99.90;;;;;;5092173;28;19999;-76
2021/05/29 07:08:58;;;;;;;;;;;13.20;99.90;;;;;;5093026;28;19904;-76
2021/05/29 07:11:24;;;;;;;;;;;13.20;99.90;;;;;;5091998;28;19916;-75
2021/05/29 07:13:49;;;;;;;;;;;13.30;99.90;;;;;;5093195;28;19954;-76
2021/05/29 07:16:16;;;;;;;;;;;13.40;99.90;;;;;;5093141;28;19904;-74
2021/05/29 07:18:45;;;;;;;;;;;13.40;99.90;;;;;;5091485;28;19915;-75
2021/05/29 07:21:11;;;;;;;;;;;13.50;99.90;;;;;;5092911;28;20002;-75
2021/05/29 07:23:37;;;;;;;;;;;13.60;99.90;;;;;;5097500;28;19991;-74
2021/05/29 07:26:02;;;;;;;;;;;13.60;99.90;;;;;;5096766;28;20038;-77
2021/05/29 07:28:28;;;;;;;;;;;13.60;99.90;;;;;;5097604;28;19904;-75
2021/05/29 07:30:53;;;;;;;;;;;13.70;99.90;;;;;;5097684;28;20275;-75
2021/05/29 07:33:20;;;;;;;;;;;13.80;99.90;;;;;;5097356;28;19904;-76
2021/05/29 07:35:48;;;;;;;;;;;13.80;99.90;;;;;;5097654;28;19907;-76
2021/05/29 07:38:13;;;;;;;;;;;13.90;99.90;;;;;;5097203;28;20336;-75
2021/05/29 07:40:39;;;;;;;;;;;14.00;99.90;;;;;;5096036;28;19955;-76
2021/05/29 07:43:04;;;;;;;;;;;14.10;99.90;;;;;;5097319;28;19910;-76
2021/05/29 07:45:30;;;;;;;;;;;14.10;99.90;;;;;;5097231;28;19976;-76
2021/05/29 07:47:56;;;;;;;;;;;14.20;99.90;;;;;;5096169;28;19911;-75
2021/05/29 07:50:21;;;;;;;;;;;14.20;99.90;;;;;;5097292;28;19904;-75
2021/05/29 07:52:47;;;;;;;;;;;14.30;99.90;;;;;;5097156;28;19949;-75
2021/05/29 07:55:12;;;;;;;;;;;14.30;99.90;;;;;;5096092;28;20279;-75
2021/05/29 07:57:38;;;;;;;;;;;14.40;99.90;;;;;;5097261;28;20241;-74
2021/05/29 08:00:05;;;;;;;;;;;14.50;99.90;;;;;;5097039;28;19939;-74
2021/05/29 08:02:30;;;;;;;;;;;14.50;99.90;;;;;;5096075;28;19904;-77
2021/05/29 08:04:56;;;;;;;;;;;14.50;99.90;;;;;;5096777;28;20445;-76
2021/05/29 08:07:21;;;;;;;;;;;14.60;99.90;;;;;;5096664;28;19908;-75
2021/05/29 08:09:47;;;;;;;;;;;15.30;99.90;;;;;;5096145;28;20309;-76
2021/05/29 08:12:13;;;;;;;;;;;14.60;99.90;;;;;;5096490;28;19918;-76
2021/05/29 08:14:38;;;;;;;;;;;14.70;99.90;;;;;;5094670;28;19911;-74
2021/05/29 08:17:05;;;;;;;;;;;14.70;99.90;;;;;;5096432;28;19916;-76
2021/05/29 08:19:30;;;;;;;;;;;14.80;99.90;;;;;;5096436;28;19908;-75
2021/05/29 08:21:56;;;;;;;;;;;14.90;99.90;;;;;;5096553;28;19907;-76
2021/05/29 08:24:21;;;;;;;;;;;14.90;99.90;;;;;;5097317;28;20034;-75
2021/05/29 08:26:47;;;;;;;;;;;15.00;99.90;;;;;;5096351;28;20591;-76
2021/05/29 08:29:15;;;;;;;;;;;15.20;99.90;;;;;;5095763;28;19911;-76
2021/05/29 08:31:43;;;;;;;;;;;15.10;99.90;;;;;;5096873;28;19915;-76
2021/05/29 08:34:09;;;;;;;;;;;15.10;99.90;;;;;;5096194;28;20417;-75
2021/05/29 08:36:35;;;;;;;;;;;15.20;99.90;;;;;;5095208;28;19903;-74
2021/05/29 08:39:01;;;;;;;;;;;15.20;99.90;;;;;;5095190;28;20363;-75
2021/05/29 08:41:27;;;;;;;;;;;15.20;99.90;;;;;;5096262;28;19922;-76
2021/05/29 08:43:53;;;;;;;;;;;15.20;99.90;;;;;;5095397;28;19908;-77
2021/05/29 08:46:18;;;;;;;;;;;15.30;99.90;;;;;;5095465;28;19936;-77
2021/05/29 08:48:44;;;;;;;;;;;15.30;99.90;;;;;;5096066;28;19942;-76
2021/05/29 08:51:13;;;;;;;;;;;15.40;99.90;;;;;;5094929;28;19968;-75
2021/05/29 08:53:39;;;;;;;;;;;15.40;99.90;;;;;;5095589;28;20002;-76
2021/05/29 08:56:04;;;;;;;;;;;15.50;99.90;;;;;;5095298;28;20320;-76
2021/05/29 08:58:30;;;;;;;;;;;15.50;99.90;;;;;;5094423;28;19958;-75
2021/05/29 09:00:58;;;;;;;;;;;15.50;99.90;;;;;;5094942;28;19912;-75
2021/05/29 09:03:23;;;;;;;;;;;15.60;99.90;;;;;;5094886;28;19904;-75
2021/05/29 09:05:51;;;;;;;;;;;15.50;99.90;;;;;;5094681;28;19904;-76
2021/05/29 09:08:18;;;;;;;;;;;15.60;99.90;;;;;;5095180;28;19904;-74
2021/05/29 09:10:47;;;;;;;;;;;15.70;99.90;;;;;;5095654;28;19977;-76
2021/05/29 09:13:14;;;;;;;;;;;15.80;99.90;;;;;;5094545;28;19904;-76
2021/05/29 09:15:40;;;;;;;;;;;15.80;99.90;;;;;;5095719;28;19911;-76
2021/05/29 09:18:06;;;;;;;;;;;15.90;99.90;;;;;;5094904;28;19918;-76
2021/05/29 09:20:31;;;;;;;;;;;15.90;99.90;;;;;;5095577;28;19915;-76
2021/05/29 09:22:58;;;;;;;;;;;15.80;99.90;;;;;;5095313;28;19966;-77
2021/05/29 09:25:24;;;;;;;;;;;15.90;99.90;;;;;;5094466;28;19957;-76
2021/05/29 09:27:52;;;;;;;;;;;15.90;99.90;;;;;;5095612;28;19904;-76
2021/05/29 09:30:35;;;;;;;;;;;16.10;99.90;;;;;;5095570;28;19912;-75
2021/05/29 09:33:08;;;;;;;;;;;16.10;99.90;;;;;;5094278;28;19911;-76
2021/05/29 09:35:34;;;;;;;;;;;16.10;99.90;;;;;;5095614;28;20366;-75
2021/05/29 09:38:03;;;;;;;;;;;16.10;99.90;;;;;;5095868;28;19904;-76
2021/05/29 09:40:30;;;;;;;;;;;16.10;99.90;;;;;;5094323;28;19959;-76
2021/05/29 09:43:00;;;;;;;;;;;16.20;99.90;;;;;;5096206;28;19908;-75
2021/05/29 09:45:27;;;;;;;;;;;16.20;99.90;;;;;;5094169;28;20282;-76
2021/05/29 09:48:09;;;;;;;;;;;16.30;99.90;;;;;;5094163;28;19904;-76
2021/05/29 09:50:35;;;;;;;;;;;16.30;99.90;;;;;;5094902;28;19995;-76
2021/05/29 09:53:01;;;;;;;;;;;16.50;99.90;;;;;;5094356;28;20399;-76
2021/05/29 09:55:36;;;;;;;;;;;16.50;99.90;;;;;;5094768;28;20384;-77
2021/05/29 09:58:02;;;;;;;;;;;16.70;99.90;;;;;;5094730;28;19904;-77
2021/05/29 10:00:40;;;;;;;;;;;16.80;99.90;;;;;;5093920;28;20412;-76
2021/05/29 10:03:06;;;;;;;;;;;16.80;99.90;;;;;;5095406;28;19904;-76
2021/05/29 10:05:32;;;;;;;;;;;16.70;99.90;;;;;;5094378;28;19978;-76
2021/05/29 10:07:58;;;;;;;;;;;16.80;99.90;;;;;;5094095;28;19904;-76
2021/05/29 10:10:24;;;;;;;;;;;16.90;99.90;;;;;;5094589;28;20007;-75
2021/05/29 10:12:49;;;;;;;;;;;17.00;99.90;;;;;;5094484;28;19908;-76
2021/05/29 10:15:15;;;;;;;;;;;17.00;99.90;;;;;;5093942;28;19915;-76
2021/05/29 10:17:43;;;;;;;;;;;17.10;99.90;;;;;;5094540;28;19939;-75
2021/05/29 10:20:08;;;;;;;;;;;17.00;99.90;;;;;;5095170;28;19912;-76
2021/05/29 10:22:34;;;;;;;;;;;17.10;99.90;;;;;;5094072;28;20009;-76
2021/05/29 10:24:59;;;;;;;;;;;17.30;99.90;;;;;;5096344;28;19904;-76
2021/05/29 10:27:28;;;;;;;;;;;17.30;99.90;;;;;;5094579;28;20337;-77
2021/05/29 10:29:54;;;;;;;;;;;17.40;99.90;;;;;;5093406;28;20249;-77
2021/05/29 10:32:20;;;;;;;;;;;17.60;99.90;;;;;;5094112;28;19949;-74
2021/05/29 10:34:59;;;;;;;;;;;17.60;99.90;;;;;;5094309;28;19915;-76
2021/05/29 10:37:30;;;;;;;;;;;17.60;99.90;;;;;;5093586;28;20290;-76
2021/05/29 10:40:12;;;;;;;;;;;17.70;99.90;;;;;;5093377;28;19923;-76
2021/05/29 10:42:38;;;;;;;;;;;17.80;99.90;;;;;;5092606;28;19915;-75
2021/05/29 10:45:18;;;;;;;;;;;17.80;99.90;;;;;;5093760;28;19904;-78
2021/05/29 10:47:59;;;;;;;;;;;17.70;99.90;;;;;;5093613;28;20348;-75
2021/05/29 10:53:37;;;;;;;;;;;18.00;99.90;;;;;;5093798;28;20348;-77
2021/05/29 10:56:18;;;;;;;;;;;18.00;99.90;;;;;;5093659;28;19904;-76
2021/05/29 10:58:55;;;;;;;;;;;17.70;99.90;;;;;;5093246;28;19904;-77
2021/05/29 11:01:21;;;;;;;;;;;17.70;99.90;;;;;;5093353;28;19959;-76
2021/05/29 11:03:48;;;;;;;;;;;17.60;99.90;;;;;;5092870;28;19912;-76
2021/05/29 11:06:30;;;;;;;;;;;17.60;99.90;;;;;;5093571;28;19907;-77
2021/05/29 11:09:00;;;;;;;;;;;17.60;99.90;;;;;;5093537;28;19918;-76
2021/05/29 11:11:38;;;;;;;;;;;17.60;99.90;;;;;;5092481;28;19904;-77
2021/05/29 11:14:08;;;;;;;;;;;17.80;99.90;;;;;;5093324;28;19907;-76
2021/05/29 11:16:45;;;;;;;;;;;17.80;99.90;;;;;;5093167;28;20348;-76
2021/05/29 11:19:21;;;;;;;;;;;18.00;99.90;;;;;;5092607;28;20429;-77
2021/05/29 11:21:59;;;;;;;;;;;18.00;99.90;;;;;;5093464;28;20289;-76
2021/05/29 11:24:25;;;;;;;;;;;17.80;99.90;;;;;;5093231;28;19930;-76
2021/05/29 11:26:50;;;;;;;;;;;17.90;99.90;;;;;;5093207;28;19904;-74
2021/05/29 11:29:16;;;;;;;;;;;18.10;99.90;;;;;;5093728;28;19912;-77
2021/05/29 11:31:42;;;;;;;;;;;18.20;99.90;;;;;;5092747;28;19911;-75
2021/05/29 11:34:08;;;;;;;;;;;18.50;99.90;;;;;;5093887;28;19904;-74
2021/05/29 11:36:33;;;;;;;;;;;18.40;99.90;;;;;;5093256;28;19904;-74
2021/05/29 11:39:09;;;;;;;;;;;18.30;99.90;;;;;;5092348;28;19904;-75
2021/05/29 11:41:35;;;;;;;;;;;18.40;99.90;;;;;;5053417;28;19979;-75
2021/05/29 11:44:01;;;;;;;;;;;18.50;99.90;;;;;;5052825;28;20360;-76
2021/05/29 11:46:30;;;;;;;;;;;18.30;99.90;;;;;;5052075;28;19916;-76
2021/05/29 11:48:59;;;;;;;;;;;18.30;99.90;;;;;;5053029;28;19905;-76
2021/05/29 11:51:25;;;;;;;;;;;18.30;99.90;;;;;;5052475;28;19905;-76
2021/05/29 11:53:56;;;;;;;;;;;18.20;99.90;;;;;;5051870;28;19984;-77
2021/05/29 11:56:32;;;;;;;;;;;18.00;99.90;;;;;;5052806;28;19991;-78
2021/05/29 11:58:58;;;;;;;;;;;18.20;99.90;;;;;;5052788;28;19905;-74
2021/05/29 12:01:30;;;;;;;;;;;18.20;99.90;;;;;;5052066;28;19958;-77
2021/05/29 12:03:59;;;;;;;;;;;18.20;99.90;;;;;;5052632;28;20261;-77
2021/05/29 12:06:43;;;;;;;;;;;18.30;99.90;;;;;;5052785;28;19915;-77
2021/05/29 12:09:18;;;;;;;;;;;18.50;99.90;;;;;;5055795;28;19905;-77
2021/05/29 12:11:54;;;;;;;;;;;18.40;99.90;;;;;;5056103;28;20370;-77
2021/05/29 12:14:24;;;;;;;;;;;18.40;99.90;;;;;;5055415;28;19948;-77
2021/05/29 12:17:03;;;;;;;;;;;18.40;99.90;;;;;;5056344;28;20026;-75
2021/05/29 12:19:38;;;;;;;;;;;18.50;99.90;;;;;;5056233;28;20358;-77
2021/05/29 12:22:14;;;;;;;;;;;18.30;99.90;;;;;;5055574;28;20304;-76
2021/05/29 12:24:41;;;;;;;;;;;18.40;99.90;;;;;;5056321;28;20356;-76
2021/05/29 12:27:08;;;;;;;;;;;18.30;99.90;;;;;;5055890;28;20341;-76
2021/05/29 12:29:34;;;;;;;;;;;18.30;99.90;;;;;;5055271;28;20375;-76
2021/05/29 12:32:00;;;;;;;;;;;18.20;99.90;;;;;;5056234;28;19904;-77
2021/05/29 12:34:27;;;;;;;;;;;18.40;99.90;;;;;;5055992;28;20284;-76
2021/05/29 12:37:02;;;;;;;;;;;18.40;99.90;;;;;;5055421;28;19905;-76
2021/05/29 12:39:43;;;;;;;;;;;18.40;99.90;;;;;;5062630;28;19998;-77
2021/05/29 12:42:22;;;;;;;;;;;18.50;99.90;;;;;;5094988;28;19915;-77
2021/05/29 12:44:48;;;;;;;;;;;18.70;99.90;;;;;;5096244;28;19910;-77
2021/05/29 12:47:15;;;;;;;;;;;18.80;99.90;;;;;;5095902;28;19955;-77
2021/05/29 12:49:40;;;;;;;;;;;18.80;99.90;;;;;;5095542;28;19904;-76
2021/05/29 12:52:19;;;;;;;;;;;18.60;99.90;;;;;;5095746;28;19911;-77
2021/05/29 12:54:46;;;;;;;;;;;18.70;99.90;;;;;;5096305;28;19911;-77
2021/05/29 12:57:11;;;;;;;;;;;18.70;99.90;;;;;;5095086;28;20468;-76
2021/05/29 12:59:37;;;;;;;;;;;18.60;99.90;;;;;;5095401;28;19904;-76
2021/05/29 13:07:33;;;;;;;;;;;19.10;99.90;;;;;;5095729;28;19962;-76
2021/05/29 13:10:17;;;;;;;;;;;19.10;99.90;;;;;;5094390;28;19903;-77
2021/05/29 13:12:59;;;;;;;;;;;19.10;99.80;;;;;;5094604;28;19904;-76
2021/05/29 13:15:25;;;;;;;;;;;19.10;99.90;;;;;;5094451;28;19927;-76
2021/05/29 13:18:06;;;;;;;;;;;19.30;99.90;;;;;;5094199;28;20363;-77
2021/05/29 13:20:31;;;;;;;;;;;19.40;99.50;;;;;;5093520;28;19938;-76
2021/05/29 13:22:58;;;;;;;;;;;19.30;98.90;;;;;;5094383;28;20220;-76
2021/05/29 13:25:23;;;;;;;;;;;19.40;99.40;;;;;;5093438;28;19911;-76
2021/05/29 13:27:52;;;;;;;;;;;19.30;99.60;;;;;;5095047;28;19905;-76
2021/05/29 13:30:19;;;;;;;;;;;19.20;98.90;;;;;;5094782;28;19911;-76
2021/05/29 13:32:49;;;;;;;;;;;19.40;99.90;;;;;;5094683;28;19908;-76
2021/05/29 13:35:15;;;;;;;;;;;19.50;98.80;;;;;;5094660;28;19904;-75
2021/05/29 13:37:40;;;;;;;;;;;19.60;98.60;;;;;;5095298;28;20124;-75
2021/05/29 13:40:07;;;;;;;;;;;19.70;98.90;;;;;;5095427;28;19922;-76
2021/05/29 13:42:34;;;;;;;;;;;19.80;98.90;;;;;;5097052;28;19920;-76
2021/05/29 13:44:59;;;;;;;;;;;19.80;98.30;;;;;;5096287;28;19915;-74
2021/05/29 13:47:25;;;;;;;;;;;19.70;97.80;;;;;;5094279;28;20336;-74
2021/05/29 13:49:50;;;;;;;;;;;19.60;99.20;;;;;;5094785;28;19908;-76
2021/05/29 13:52:16;;;;;;;;;;;19.30;98.80;;;;;;5094328;28;20268;-74
2021/05/29 13:54:41;;;;;;;;;;;19.80;99.80;;;;;;5094861;28;20310;-75
2021/05/29 13:57:08;;;;;;;;;;;19.40;98.80;;;;;;5094717;28;20075;-75
2021/05/29 13:59:34;;;;;;;;;;;19.60;98.70;;;;;;5093661;28;20356;-77
2021/05/29 14:02:00;;;;;;;;;;;19.80;97.20;;;;;;5094656;28;20291;-76
2021/05/29 14:04:25;;;;;;;;;;;19.80;97.20;;;;;;5094539;28;19904;-75
2021/05/29 14:06:51;;;;;;;;;;;19.90;97.20;;;;;;5093674;28;20279;-76
2021/05/29 14:09:16;;;;;;;;;;;19.80;98.30;;;;;;5094404;28;19904;-75
2021/05/29 14:11:43;;;;;;;;;;;19.60;97.60;;;;;;5094352;28;19904;-76
2021/05/29 14:14:09;;;;;;;;;;;19.60;98.10;;;;;;5093858;28;19904;-76
2021/05/29 14:16:35;;;;;;;;;;;19.60;98.00;;;;;;5094242;28;19904;-75
2021/05/29 14:19:02;;;;;;;;;;;19.90;97.10;;;;;;5094393;28;19962;-76
2021/05/29 14:21:27;;;;;;;;;;;20.00;97.20;;;;;;5093459;28;19912;-76
2021/05/29 14:23:53;;;;;;;;;;;20.30;97.50;;;;;;5094557;28;19920;-76
2021/05/29 14:26:18;;;;;;;;;;;20.80;96.30;;;;;;5094310;28;19911;-76
2021/05/29 14:28:44;;;;;;;;;;;20.90;96.10;;;;;;5094085;28;19957;-76
2021/05/29 14:31:10;;;;;;;;;;;20.90;94.90;;;;;;5094781;28;19904;-76
2021/05/29 14:33:36;;;;;;;;;;;20.80;93.70;;;;;;5094868;28;20378;-76
2021/05/29 14:36:03;;;;;;;;;;;20.70;94.60;;;;;;5094490;28;19908;-76
2021/05/29 14:38:29;;;;;;;;;;;20.90;94.40;;;;;;5096547;28;19954;-76